createdAt,value
2019-03-04T00:00:52.691Z,0.00
2019-03-04T00:01:52.729Z,0.00
2019-03-04T00:02:52.778Z,0.00
2019-03-04T00:03:52.809Z,0.00
2019-03-04T00:04:52.851Z,0.00
2019-03-04T00:05:52.887Z,0.00
2019-03-04T00:06:52.927Z,0.00
2019-03-04T00:07:52.981Z,0.00
2019-03-04T00:08:53.011Z,0.00
2019-03-04T00:09:53.045Z,0.00
2019-03-04T00:10:53.085Z,0.00
2019-03-04T00:11:53.133Z,0.00
2019-03-04T00:12:53.164Z,0.00
2019-03-04T00:13:53.206Z,0.00
2019-03-04T00:14:53.244Z,0.00
2019-03-04T00:15:53.284Z,0.00
2019-03-04T00:16:53.331Z,0.00
2019-03-04T00:17:53.362Z,0.00
2019-03-04T00:18:53.400Z,0.00
2019-03-04T00:19:53.443Z,0.00
2019-03-04T00:20:53.530Z,0.00
2019-03-04T00:21:53.518Z,0.00
2019-03-04T00:22:53.560Z,0.00
2019-03-04T00:23:53.598Z,0.00
2019-03-04T00:24:53.645Z,0.00
2019-03-04T00:25:53.679Z,0.00
2019-03-04T00:26:53.725Z,0.00
2019-03-04T00:27:53.754Z,0.00
2019-03-04T00:28:53.795Z,0.00
2019-03-04T00:29:53.835Z,0.00
2019-03-04T00:30:53.873Z,0.00
2019-03-04T00:31:53.913Z,0.00
2019-03-04T00:32:53.953Z,0.00
2019-03-04T00:33:53.992Z,0.00
2019-03-04T00:34:54.032Z,0.00
2019-03-04T00:35:54.087Z,0.00
2019-03-04T00:36:54.112Z,0.00
2019-03-04T00:37:54.152Z,0.00
2019-03-04T00:38:54.191Z,0.00
2019-03-04T00:39:54.279Z,0.00
2019-03-04T00:40:54.269Z,0.00
2019-03-04T00:41:54.315Z,0.00
2019-03-04T00:42:54.349Z,0.00
2019-03-04T00:43:54.390Z,0.00
2019-03-04T00:44:54.432Z,0.00
2019-03-04T00:45:54.466Z,0.00
2019-03-04T00:46:54.508Z,0.00
2019-03-04T00:47:54.548Z,0.00
2019-03-04T00:48:54.586Z,0.00
2019-03-04T00:49:54.625Z,0.00
2019-03-04T00:50:54.667Z,0.00
2019-03-04T00:51:54.714Z,0.00
2019-03-04T00:52:54.750Z,0.00
2019-03-04T00:53:54.792Z,0.00
2019-03-04T00:54:54.824Z,0.00
2019-03-04T00:55:54.862Z,0.00
2019-03-04T00:56:54.903Z,0.00
2019-03-04T00:57:54.941Z,0.00
2019-03-04T00:58:54.982Z,0.00
2019-03-04T00:59:55.022Z,0.00
2019-03-04T01:00:55.061Z,0.00
2019-03-04T01:01:55.100Z,0.00
2019-03-04T01:02:55.140Z,0.00
2019-03-04T01:03:55.179Z,0.00
2019-03-04T01:04:55.223Z,0.00
2019-03-04T01:05:55.266Z,0.00
2019-03-04T01:06:55.299Z,0.00
2019-03-04T01:07:55.340Z,0.00
2019-03-04T01:08:55.389Z,0.00
2019-03-04T01:09:55.419Z,0.00
2019-03-04T01:10:55.457Z,0.00
2019-03-04T01:11:55.499Z,0.00
2019-03-04T01:12:55.548Z,0.00
2019-03-04T01:13:55.579Z,0.00
2019-03-04T01:14:55.626Z,0.00
2019-03-04T01:15:55.658Z,0.00
2019-03-04T01:16:55.696Z,0.00
2019-03-04T01:17:55.737Z,0.00
2019-03-04T01:18:55.776Z,0.00
2019-03-04T01:19:55.819Z,0.00
2019-03-04T01:20:55.859Z,0.00
2019-03-04T01:21:55.894Z,0.00
2019-03-04T01:22:55.936Z,0.00
2019-03-04T01:23:55.981Z,0.00
2019-03-04T01:24:56.022Z,0.00
2019-03-04T01:25:56.053Z,0.00
2019-03-04T01:26:56.094Z,0.00
2019-03-04T01:27:56.132Z,0.00
2019-03-04T01:28:56.172Z,0.00
2019-03-04T01:29:56.209Z,0.00
2019-03-04T01:30:56.251Z,0.00
2019-03-04T01:31:56.290Z,0.00
2019-03-04T01:32:56.334Z,0.00
2019-03-04T01:33:56.368Z,0.00
2019-03-04T01:34:56.408Z,0.00
2019-03-04T01:35:56.446Z,0.00
2019-03-04T01:36:56.486Z,0.00
2019-03-04T01:37:56.531Z,0.00
2019-03-04T01:38:56.622Z,0.00
2019-03-04T01:39:56.609Z,0.00
2019-03-04T01:40:56.645Z,0.00
2019-03-04T01:41:56.680Z,0.00
2019-03-04T01:42:56.723Z,0.00
2019-03-04T01:43:56.761Z,0.00
2019-03-04T01:44:56.802Z,0.00
2019-03-04T01:45:56.842Z,0.00
2019-03-04T01:46:56.892Z,0.00
2019-03-04T01:47:56.919Z,0.00
2019-03-04T01:48:56.958Z,0.00
2019-03-04T01:49:57.004Z,0.00
2019-03-04T01:50:57.038Z,0.00
2019-03-04T01:51:57.078Z,0.00
2019-03-04T01:52:57.115Z,0.00
2019-03-04T01:53:57.153Z,0.00
2019-03-04T01:54:57.190Z,0.00
2019-03-04T01:55:57.230Z,0.00
2019-03-04T01:56:57.270Z,0.00
2019-03-04T01:57:57.311Z,0.00
2019-03-04T01:58:57.347Z,0.00
2019-03-04T01:59:57.390Z,0.00
2019-03-04T02:00:57.427Z,0.00
2019-03-04T02:01:57.467Z,0.00
2019-03-04T02:02:57.511Z,0.00
2019-03-04T02:03:57.545Z,0.00
2019-03-04T02:04:57.584Z,0.00
2019-03-04T02:05:57.624Z,0.00
2019-03-04T02:06:57.814Z,0.00
2019-03-04T02:07:57.701Z,0.00
2019-03-04T02:08:57.757Z,0.00
2019-03-04T02:09:57.779Z,0.00
2019-03-04T02:10:57.819Z,0.00
2019-03-04T02:11:57.859Z,0.00
2019-03-04T02:12:57.898Z,0.00
2019-03-04T02:13:57.938Z,0.00
2019-03-04T02:14:57.980Z,0.00
2019-03-04T02:15:58.017Z,0.00
2019-03-04T02:16:58.056Z,0.00
2019-03-04T02:17:58.103Z,0.00
2019-03-04T02:18:58.135Z,0.00
2019-03-04T02:19:58.178Z,0.00
2019-03-04T02:20:58.215Z,0.00
2019-03-04T02:21:58.255Z,0.00
2019-03-04T02:22:58.294Z,0.00
2019-03-04T02:23:58.334Z,0.00
2019-03-04T02:24:58.370Z,0.00
2019-03-04T02:25:58.410Z,0.00
2019-03-04T02:26:58.453Z,0.00
2019-03-04T02:27:58.493Z,0.00
2019-03-04T02:28:58.530Z,0.00
2019-03-04T02:29:58.577Z,0.00
2019-03-04T02:30:58.608Z,0.00
2019-03-04T02:31:58.648Z,0.00
2019-03-04T02:32:58.687Z,0.00
2019-03-04T02:33:58.729Z,0.00
2019-03-04T02:34:58.768Z,0.00
2019-03-04T02:35:58.808Z,0.00
2019-03-04T02:36:58.846Z,0.00
2019-03-04T02:37:58.901Z,0.00
2019-03-04T02:38:58.926Z,0.00
2019-03-04T02:39:58.969Z,0.00
2019-03-04T02:40:59.006Z,0.00
2019-03-04T02:41:59.046Z,0.00
2019-03-04T02:42:59.084Z,0.00
2019-03-04T02:43:59.123Z,0.00
2019-03-04T02:44:59.171Z,0.00
2019-03-04T02:45:59.211Z,0.00
2019-03-04T02:46:59.242Z,0.00
2019-03-04T02:47:59.290Z,0.00
2019-03-04T02:48:59.324Z,0.00
2019-03-04T02:49:59.370Z,0.00
2019-03-04T02:50:59.401Z,0.00
2019-03-04T02:51:59.440Z,0.00
2019-03-04T02:52:59.481Z,0.00
2019-03-04T02:53:59.520Z,0.00
2019-03-04T02:54:59.563Z,0.00
2019-03-04T02:55:59.597Z,0.00
2019-03-04T02:56:59.643Z,0.00
2019-03-04T02:57:59.683Z,0.00
2019-03-04T02:58:59.717Z,0.00
2019-03-04T02:59:59.755Z,0.00
2019-03-04T03:00:59.798Z,0.00
2019-03-04T03:01:59.836Z,0.00
2019-03-04T03:02:59.877Z,0.00
2019-03-04T03:03:59.966Z,0.00
2019-03-04T03:04:59.956Z,0.00
2019-03-04T03:05:59.994Z,0.00
2019-03-04T03:07:00.035Z,0.00
2019-03-04T03:08:00.079Z,0.00
2019-03-04T03:09:00.112Z,0.00
2019-03-04T03:10:00.381Z,0.00
2019-03-04T03:11:00.196Z,0.00
2019-03-04T03:12:00.235Z,0.00
2019-03-04T03:13:00.272Z,0.00
2019-03-04T03:14:00.318Z,0.00
2019-03-04T03:15:00.489Z,0.00
2019-03-04T03:16:00.392Z,0.00
2019-03-04T03:17:00.431Z,0.00
2019-03-04T03:18:00.473Z,0.00
2019-03-04T03:19:00.511Z,0.00
2019-03-04T03:20:00.555Z,0.00
2019-03-04T03:21:00.593Z,0.00
2019-03-04T03:22:00.630Z,0.00
2019-03-04T03:23:00.673Z,0.00
2019-03-04T03:24:00.711Z,0.00
2019-03-04T03:25:00.754Z,0.00
2019-03-04T03:26:00.789Z,0.00
2019-03-04T03:27:00.830Z,0.00
2019-03-04T03:28:00.883Z,0.00
2019-03-04T03:29:00.912Z,0.00
2019-03-04T03:30:00.950Z,0.00
2019-03-04T03:31:00.991Z,0.00
2019-03-04T03:32:01.048Z,0.00
2019-03-04T03:33:01.077Z,0.00
2019-03-04T03:34:01.110Z,0.00
2019-03-04T03:35:01.161Z,0.00
2019-03-04T03:36:01.190Z,0.00
2019-03-04T03:37:01.232Z,0.00
2019-03-04T03:38:01.267Z,0.00
2019-03-04T03:39:01.317Z,0.00
2019-03-04T03:40:01.350Z,0.00
2019-03-04T03:41:01.398Z,0.00
2019-03-04T03:42:01.451Z,0.00
2019-03-04T03:43:01.471Z,0.00
2019-03-04T03:44:01.514Z,0.00
2019-03-04T03:45:01.550Z,0.00
2019-03-04T03:46:01.592Z,0.00
2019-03-04T03:47:01.629Z,0.00
2019-03-04T03:48:01.670Z,0.00
2019-03-04T03:49:01.710Z,0.00
2019-03-04T03:50:01.762Z,0.00
2019-03-04T03:51:01.796Z,0.00
2019-03-04T03:52:01.828Z,0.00
2019-03-04T03:53:01.870Z,0.00
2019-03-04T03:54:01.909Z,0.00
2019-03-04T03:55:01.948Z,0.00
2019-03-04T03:56:01.988Z,0.00
2019-03-04T03:57:02.029Z,0.00
2019-03-04T03:58:02.073Z,0.00
2019-03-04T03:59:02.104Z,0.00
2019-03-04T04:00:02.157Z,0.00
2019-03-04T04:01:02.195Z,0.00
2019-03-04T04:02:02.226Z,0.00
2019-03-04T04:03:02.310Z,0.00
2019-03-04T04:04:02.305Z,0.00
2019-03-04T04:05:02.348Z,0.00
2019-03-04T04:06:02.391Z,0.00
2019-03-04T04:07:02.429Z,0.00
2019-03-04T04:08:02.464Z,0.00
2019-03-04T04:09:02.506Z,0.00
2019-03-04T04:10:02.546Z,0.00
2019-03-04T04:11:02.584Z,0.00
2019-03-04T04:12:02.626Z,0.00
2019-03-04T04:13:02.682Z,0.00
2019-03-04T04:14:02.702Z,0.00
2019-03-04T04:15:02.744Z,0.00
2019-03-04T04:16:02.782Z,0.00
2019-03-04T04:17:02.830Z,0.00
2019-03-04T04:18:02.864Z,0.00
2019-03-04T04:19:02.910Z,0.00
2019-03-04T04:20:02.944Z,0.00
2019-03-04T04:21:02.991Z,0.00
2019-03-04T04:22:03.024Z,0.00
2019-03-04T04:23:03.065Z,0.00
2019-03-04T04:24:03.101Z,0.00
2019-03-04T04:25:03.141Z,0.00
2019-03-04T04:26:03.237Z,0.00
2019-03-04T04:27:03.222Z,0.00
2019-03-04T04:28:03.262Z,0.00
2019-03-04T04:29:03.314Z,0.00
2019-03-04T04:30:03.338Z,0.00
2019-03-04T04:31:03.380Z,0.00
2019-03-04T04:32:03.420Z,0.00
2019-03-04T04:33:03.458Z,0.00
2019-03-04T04:34:03.498Z,0.00
2019-03-04T04:35:03.540Z,0.00
2019-03-04T04:36:03.575Z,0.00
2019-03-04T04:37:03.627Z,0.00
2019-03-04T04:38:03.661Z,0.00
2019-03-04T04:39:03.707Z,0.00
2019-03-04T04:40:03.735Z,0.00
2019-03-04T04:41:03.778Z,0.00
2019-03-04T04:42:03.814Z,0.00
2019-03-04T04:43:03.859Z,0.00
2019-03-04T04:44:03.895Z,0.00
2019-03-04T04:45:03.935Z,0.00
2019-03-04T04:46:03.973Z,0.00
2019-03-04T04:47:04.018Z,0.00
2019-03-04T04:48:04.053Z,0.00
2019-03-04T04:49:04.093Z,0.00
2019-03-04T04:50:04.132Z,0.00
2019-03-04T04:51:04.174Z,0.00
2019-03-04T04:52:04.211Z,0.00
2019-03-04T04:53:04.252Z,0.00
2019-03-04T04:54:04.292Z,0.00
2019-03-04T04:55:04.333Z,0.00
2019-03-04T04:56:04.375Z,0.00
2019-03-04T04:57:04.411Z,0.00
2019-03-04T04:58:04.451Z,0.00
2019-03-04T04:59:04.489Z,0.00
2019-03-04T05:00:04.531Z,0.00
2019-03-04T05:01:04.569Z,0.00
2019-03-04T05:02:04.607Z,0.00
2019-03-04T05:03:04.647Z,0.00
2019-03-04T05:04:04.692Z,0.00
2019-03-04T05:05:04.727Z,0.00
2019-03-04T05:06:04.767Z,0.00
2019-03-04T05:07:04.806Z,0.00
2019-03-04T05:08:04.851Z,0.00
2019-03-04T05:09:04.887Z,0.00
2019-03-04T05:10:04.949Z,0.00
2019-03-04T05:11:04.971Z,0.00
2019-03-04T05:12:05.005Z,0.00
2019-03-04T05:13:05.048Z,0.00
2019-03-04T05:14:05.092Z,0.00
2019-03-04T05:15:05.124Z,0.00
2019-03-04T05:16:05.168Z,0.00
2019-03-04T05:17:05.213Z,0.00
2019-03-04T05:18:05.243Z,0.00
2019-03-04T05:19:05.285Z,0.00
2019-03-04T05:20:05.324Z,0.00
2019-03-04T05:21:05.366Z,0.00
2019-03-04T05:22:05.405Z,0.00
2019-03-04T05:23:05.445Z,0.00
2019-03-04T05:24:05.483Z,0.00
2019-03-04T05:25:05.525Z,0.00
2019-03-04T05:26:05.563Z,0.00
2019-03-04T05:27:05.610Z,0.00
2019-03-04T05:28:05.641Z,0.00
2019-03-04T05:29:05.682Z,0.00
2019-03-04T05:30:05.719Z,0.00
2019-03-04T05:31:05.761Z,0.00
2019-03-04T05:32:05.801Z,0.00
2019-03-04T05:33:05.842Z,0.00
2019-03-04T05:34:05.880Z,0.00
2019-03-04T05:35:05.926Z,0.00
2019-03-04T05:36:05.960Z,0.00
2019-03-04T05:37:05.999Z,0.00
2019-03-04T05:38:06.040Z,0.00
2019-03-04T05:39:06.079Z,0.00
2019-03-04T05:40:06.119Z,0.00
2019-03-04T05:41:06.159Z,0.00
2019-03-04T05:42:06.197Z,0.00
2019-03-04T05:43:06.237Z,0.00
2019-03-04T05:44:06.286Z,0.00
2019-03-04T05:45:06.318Z,0.00
2019-03-04T05:46:06.357Z,0.00
2019-03-04T05:47:06.396Z,0.00
2019-03-04T05:48:07.687Z,0.00
2019-03-04T05:49:06.476Z,0.00
2019-03-04T05:50:06.514Z,0.00
2019-03-04T05:51:06.561Z,0.00
2019-03-04T05:52:06.600Z,0.00
2019-03-04T05:53:06.637Z,0.00
2019-03-04T05:54:06.676Z,0.00
2019-03-04T05:55:08.820Z,0.00
2019-03-04T05:56:06.768Z,0.00
2019-03-04T05:57:06.836Z,0.00
2019-03-04T05:58:06.832Z,0.00
2019-03-04T05:59:06.873Z,0.00
2019-03-04T06:00:06.963Z,0.00
2019-03-04T06:01:06.956Z,0.00
2019-03-04T06:02:07.007Z,0.00
2019-03-04T06:03:07.030Z,0.00
2019-03-04T06:04:07.071Z,0.00
2019-03-04T06:05:07.111Z,0.00
2019-03-04T06:06:07.172Z,0.00
2019-03-04T06:07:07.191Z,5.63
2019-03-04T06:08:07.229Z,5.63
2019-03-04T06:09:07.270Z,5.63
2019-03-04T06:10:07.309Z,5.63
2019-03-04T06:11:07.348Z,5.63
2019-03-04T06:12:07.390Z,5.63
2019-03-04T06:13:07.430Z,5.63
2019-03-04T06:14:07.470Z,11.25
2019-03-04T06:15:07.522Z,11.25
2019-03-04T06:16:07.565Z,5.63
2019-03-04T06:17:07.588Z,5.63
2019-03-04T06:18:07.633Z,11.25
2019-03-04T06:19:07.669Z,11.25
2019-03-04T06:20:07.706Z,11.25
2019-03-04T06:21:07.752Z,11.25
2019-03-04T06:22:07.788Z,11.25
2019-03-04T06:23:07.834Z,16.88
2019-03-04T06:24:07.891Z,16.88
2019-03-04T06:25:07.908Z,22.50
2019-03-04T06:26:07.946Z,22.50
2019-03-04T06:27:07.983Z,28.13
2019-03-04T06:28:08.027Z,33.75
2019-03-04T06:29:08.066Z,39.38
2019-03-04T06:30:08.109Z,39.38
2019-03-04T06:31:08.145Z,33.75
2019-03-04T06:32:08.187Z,28.13
2019-03-04T06:33:08.226Z,28.13
2019-03-04T06:34:08.260Z,28.13
2019-03-04T06:35:08.310Z,28.13
2019-03-04T06:36:08.343Z,28.13
2019-03-04T06:37:08.383Z,28.13
2019-03-04T06:38:08.420Z,28.13
2019-03-04T06:39:08.461Z,22.50
2019-03-04T06:40:08.499Z,22.50
2019-03-04T06:41:08.540Z,22.50
2019-03-04T06:42:08.581Z,28.13
2019-03-04T06:43:08.620Z,28.13
2019-03-04T06:44:08.661Z,33.75
2019-03-04T06:45:08.698Z,39.38
2019-03-04T06:46:08.752Z,45.00
2019-03-04T06:47:08.786Z,50.63
2019-03-04T06:48:08.821Z,56.25
2019-03-04T06:49:08.858Z,56.25
2019-03-04T06:50:08.924Z,56.25
2019-03-04T06:51:08.944Z,50.63
2019-03-04T06:52:08.978Z,50.63
2019-03-04T06:53:09.020Z,45.00
2019-03-04T06:54:09.091Z,39.38
2019-03-04T06:55:09.098Z,33.75
2019-03-04T06:56:09.137Z,28.13
2019-03-04T06:57:09.178Z,28.13
2019-03-04T06:58:09.215Z,39.38
2019-03-04T06:59:09.256Z,56.25
2019-03-04T07:00:09.297Z,73.13
2019-03-04T07:01:09.336Z,73.13
2019-03-04T07:02:09.374Z,73.13
2019-03-04T07:03:09.415Z,78.75
2019-03-04T07:04:09.454Z,78.75
2019-03-04T07:05:09.496Z,73.13
2019-03-04T07:06:09.538Z,73.13
2019-03-04T07:07:09.576Z,73.13
2019-03-04T07:08:09.613Z,73.13
2019-03-04T07:09:09.655Z,67.50
2019-03-04T07:10:09.694Z,67.50
2019-03-04T07:11:09.734Z,61.88
2019-03-04T07:12:09.775Z,67.50
2019-03-04T07:13:09.815Z,73.13
2019-03-04T07:14:09.853Z,78.75
2019-03-04T07:15:09.894Z,95.63
2019-03-04T07:16:09.934Z,118.13
2019-03-04T07:17:09.984Z,135.00
2019-03-04T07:18:10.012Z,140.63
2019-03-04T07:19:10.055Z,129.38
2019-03-04T07:20:10.096Z,129.38
2019-03-04T07:21:10.138Z,118.13
2019-03-04T07:22:11.118Z,106.88
2019-03-04T07:23:10.214Z,84.38
2019-03-04T07:24:10.254Z,67.50
2019-03-04T07:25:10.296Z,61.88
2019-03-04T07:26:10.335Z,56.25
2019-03-04T07:27:10.382Z,61.88
2019-03-04T07:28:10.414Z,56.25
2019-03-04T07:29:10.456Z,61.88
2019-03-04T07:30:10.496Z,67.50
2019-03-04T07:31:10.536Z,84.38
2019-03-04T07:32:10.581Z,101.25
2019-03-04T07:33:10.625Z,123.75
2019-03-04T07:34:10.659Z,135.00
2019-03-04T07:35:10.700Z,123.75
2019-03-04T07:36:10.742Z,118.13
2019-03-04T07:37:10.780Z,112.50
2019-03-04T07:38:10.818Z,118.13
2019-03-04T07:39:10.872Z,118.13
2019-03-04T07:40:10.899Z,118.13
2019-03-04T07:41:10.942Z,118.13
2019-03-04T07:42:10.980Z,101.25
2019-03-04T07:43:11.023Z,95.63
2019-03-04T07:44:11.065Z,84.38
2019-03-04T07:45:11.103Z,78.75
2019-03-04T07:46:11.143Z,123.75
2019-03-04T07:47:11.189Z,129.38
2019-03-04T07:48:11.227Z,112.50
2019-03-04T07:49:11.274Z,129.38
2019-03-04T07:50:11.310Z,129.38
2019-03-04T07:51:11.346Z,129.38
2019-03-04T07:52:11.386Z,118.13
2019-03-04T07:53:11.427Z,123.75
2019-03-04T07:54:11.467Z,135.00
2019-03-04T07:55:11.511Z,151.88
2019-03-04T07:56:11.548Z,163.13
2019-03-04T07:57:11.591Z,146.25
2019-03-04T07:58:11.634Z,123.75
2019-03-04T07:59:11.669Z,106.88
2019-03-04T08:00:11.711Z,84.38
2019-03-04T08:01:11.754Z,61.88
2019-03-04T08:02:11.802Z,78.75
2019-03-04T08:03:11.839Z,78.75
2019-03-04T08:04:11.881Z,78.75
2019-03-04T08:05:11.916Z,73.13
2019-03-04T08:06:12.034Z,73.13
2019-03-04T08:07:11.994Z,90.00
2019-03-04T08:08:12.035Z,78.75
2019-03-04T08:09:12.078Z,67.50
2019-03-04T08:10:12.162Z,78.75
2019-03-04T08:11:12.157Z,95.63
2019-03-04T08:12:12.198Z,101.25
2019-03-04T08:13:12.237Z,135.00
2019-03-04T08:14:12.280Z,112.50
2019-03-04T08:15:12.329Z,135.00
2019-03-04T08:16:12.363Z,163.13
2019-03-04T08:17:12.405Z,202.50
2019-03-04T08:18:12.445Z,191.25
2019-03-04T08:19:12.485Z,196.88
2019-03-04T08:20:12.524Z,225.00
2019-03-04T08:21:12.572Z,253.13
2019-03-04T08:22:12.608Z,258.75
2019-03-04T08:23:12.671Z,253.13
2019-03-04T08:24:12.690Z,247.50
2019-03-04T08:25:12.734Z,241.88
2019-03-04T08:26:12.789Z,247.50
2019-03-04T08:27:12.814Z,236.25
2019-03-04T08:28:12.861Z,241.88
2019-03-04T08:29:12.903Z,230.63
2019-03-04T08:30:12.934Z,213.75
2019-03-04T08:31:12.975Z,208.13
2019-03-04T08:32:13.019Z,185.63
2019-03-04T08:33:13.072Z,151.88
2019-03-04T08:34:13.109Z,135.00
2019-03-04T08:35:13.140Z,140.63
2019-03-04T08:36:13.200Z,112.50
2019-03-04T08:37:13.230Z,135.00
2019-03-04T08:38:13.266Z,157.50
2019-03-04T08:39:13.306Z,146.25
2019-03-04T08:40:13.355Z,118.13
2019-03-04T08:41:13.390Z,135.00
2019-03-04T08:42:13.430Z,219.38
2019-03-04T08:43:13.480Z,258.75
2019-03-04T08:44:13.513Z,258.75
2019-03-04T08:45:13.555Z,247.50
2019-03-04T08:46:13.596Z,241.88
2019-03-04T08:47:13.639Z,253.13
2019-03-04T08:48:13.686Z,241.88
2019-03-04T08:49:13.762Z,213.75
2019-03-04T08:50:13.764Z,219.38
2019-03-04T08:51:13.802Z,202.50
2019-03-04T08:52:13.847Z,196.88
2019-03-04T08:53:13.887Z,219.38
2019-03-04T08:54:13.930Z,219.38
2019-03-04T08:55:13.969Z,163.13
2019-03-04T08:56:14.010Z,146.25
2019-03-04T08:57:14.051Z,157.50
2019-03-04T08:58:14.093Z,163.13
2019-03-04T08:59:14.150Z,146.25
2019-03-04T09:00:14.188Z,196.88
2019-03-04T09:01:14.220Z,196.88
2019-03-04T09:02:14.264Z,213.75
2019-03-04T09:03:14.300Z,202.50
2019-03-04T09:04:14.342Z,146.25
2019-03-04T09:05:14.392Z,106.88
2019-03-04T09:06:14.424Z,90.00
2019-03-04T09:07:14.467Z,78.75
2019-03-04T09:08:14.517Z,73.13
2019-03-04T09:09:14.556Z,56.25
2019-03-04T09:10:14.592Z,56.25
2019-03-04T09:11:14.639Z,129.38
2019-03-04T09:12:14.676Z,168.75
2019-03-04T09:13:14.724Z,191.25
2019-03-04T09:14:14.759Z,247.50
2019-03-04T09:15:14.799Z,241.88
2019-03-04T09:16:14.839Z,219.38
2019-03-04T09:17:14.887Z,163.13
2019-03-04T09:18:14.921Z,78.75
2019-03-04T09:19:14.972Z,67.50
2019-03-04T09:20:15.003Z,39.38
2019-03-04T09:21:15.059Z,33.75
2019-03-04T09:22:15.084Z,28.13
2019-03-04T09:23:15.127Z,28.13
2019-03-04T09:24:15.169Z,33.75
2019-03-04T09:25:15.209Z,61.88
2019-03-04T09:26:15.250Z,78.75
2019-03-04T09:27:15.294Z,78.75
2019-03-04T09:28:15.330Z,90.00
2019-03-04T09:29:15.406Z,123.75
2019-03-04T09:30:15.413Z,163.13
2019-03-04T09:31:15.454Z,208.13
2019-03-04T09:32:15.493Z,202.50
2019-03-04T09:33:15.535Z,191.25
2019-03-04T09:34:15.577Z,135.00
2019-03-04T09:35:15.618Z,95.63
2019-03-04T09:36:15.659Z,78.75
2019-03-04T09:37:15.696Z,73.13
2019-03-04T09:38:15.736Z,95.63
2019-03-04T09:39:15.782Z,168.75
2019-03-04T09:40:15.815Z,225.00
2019-03-04T09:41:15.856Z,264.38
2019-03-04T09:42:15.895Z,281.25
2019-03-04T09:43:15.935Z,298.13
2019-03-04T09:44:15.980Z,292.50
2019-03-04T09:45:16.018Z,275.63
2019-03-04T09:46:16.056Z,230.63
2019-03-04T09:47:16.095Z,213.75
2019-03-04T09:48:16.136Z,191.25
2019-03-04T09:49:16.187Z,151.88
2019-03-04T09:50:16.220Z,157.50
2019-03-04T09:51:24.025Z,213.75
2019-03-04T09:52:16.293Z,264.38
2019-03-04T09:53:16.332Z,270.00
2019-03-04T09:54:16.372Z,270.00
2019-03-04T09:55:16.411Z,298.13
2019-03-04T09:56:16.450Z,303.75
2019-03-04T09:57:16.490Z,309.38
2019-03-04T09:58:16.530Z,320.63
2019-03-04T09:59:16.587Z,320.63
2019-03-04T10:00:16.609Z,320.63
2019-03-04T10:01:16.646Z,320.63
2019-03-04T10:02:16.684Z,315.00
2019-03-04T10:03:16.724Z,292.50
2019-03-04T10:04:16.770Z,270.00
2019-03-04T10:05:16.831Z,264.38
2019-03-04T10:06:16.845Z,258.75
2019-03-04T10:07:16.883Z,275.63
2019-03-04T10:08:16.926Z,298.13
2019-03-04T10:09:17.014Z,292.50
2019-03-04T10:10:17.002Z,275.63
2019-03-04T10:11:17.043Z,253.13
2019-03-04T10:12:17.090Z,241.88
2019-03-04T10:13:17.121Z,236.25
2019-03-04T10:14:17.163Z,202.50
2019-03-04T10:15:17.209Z,180.00
2019-03-04T10:16:18.923Z,157.50
2019-03-04T10:17:17.281Z,129.38
2019-03-04T10:18:17.319Z,123.75
2019-03-04T10:19:17.356Z,123.75
2019-03-04T10:20:17.418Z,123.75
2019-03-04T10:21:17.450Z,123.75
2019-03-04T10:22:17.476Z,118.13
2019-03-04T10:23:17.521Z,112.50
2019-03-04T10:24:17.557Z,112.50
2019-03-04T10:25:17.596Z,118.13
2019-03-04T10:26:22.709Z,118.13
2019-03-04T10:27:17.673Z,112.50
2019-03-04T10:28:17.726Z,112.50
2019-03-04T10:29:17.752Z,101.25
2019-03-04T10:30:17.794Z,101.25
2019-03-04T10:31:17.830Z,118.13
2019-03-04T10:32:17.870Z,123.75
2019-03-04T10:33:17.910Z,118.13
2019-03-04T10:34:17.955Z,112.50
2019-03-04T10:35:17.998Z,106.88
2019-03-04T10:36:18.030Z,106.88
2019-03-04T10:37:18.075Z,106.88
2019-03-04T10:38:22.496Z,106.88
2019-03-04T10:39:22.504Z,106.88
2019-03-04T10:40:18.185Z,106.88
2019-03-04T10:41:18.222Z,106.88
2019-03-04T10:42:18.272Z,106.88
2019-03-04T10:43:18.302Z,106.88
2019-03-04T10:44:18.341Z,106.88
2019-03-04T10:45:18.410Z,112.50
2019-03-04T10:46:18.421Z,112.50
2019-03-04T10:47:18.459Z,112.50
2019-03-04T10:48:18.499Z,112.50
2019-03-04T10:49:18.540Z,112.50
2019-03-04T10:50:18.575Z,123.75
2019-03-04T10:51:18.821Z,129.38
2019-03-04T10:52:18.657Z,135.00
2019-03-04T10:53:18.695Z,135.00
2019-03-04T10:54:18.733Z,123.75
2019-03-04T10:55:18.773Z,135.00
2019-03-04T10:56:18.825Z,213.75
2019-03-04T10:57:18.850Z,258.75
2019-03-04T10:58:18.890Z,191.25
2019-03-04T10:59:18.936Z,180.00
2019-03-04T11:00:18.977Z,247.50
2019-03-04T11:01:19.021Z,275.63
2019-03-04T11:02:19.046Z,275.63
2019-03-04T11:03:19.100Z,241.88
2019-03-04T11:04:19.134Z,174.38
2019-03-04T11:05:19.168Z,140.63
2019-03-04T11:06:19.210Z,191.25
2019-03-04T11:07:19.245Z,247.50
2019-03-04T11:08:19.286Z,180.00
2019-03-04T11:09:19.327Z,140.63
2019-03-04T11:10:19.365Z,140.63
2019-03-04T11:11:29.304Z,135.00
2019-03-04T11:12:19.445Z,140.63
2019-03-04T11:13:19.485Z,168.75
2019-03-04T11:14:19.539Z,157.50
2019-03-04T11:15:19.572Z,174.38
2019-03-04T11:16:19.605Z,174.38
2019-03-04T11:17:19.646Z,219.38
2019-03-04T11:18:19.684Z,286.88
2019-03-04T11:19:19.723Z,320.63
2019-03-04T11:20:19.776Z,208.13
2019-03-04T11:21:19.809Z,174.38
2019-03-04T11:22:19.844Z,213.75
2019-03-04T11:23:19.885Z,253.13
2019-03-04T11:24:19.924Z,225.00
2019-03-04T11:25:19.968Z,196.88
2019-03-04T11:26:20.006Z,258.75
2019-03-04T11:27:20.069Z,247.50
2019-03-04T11:28:20.092Z,253.13
2019-03-04T11:29:20.125Z,275.63
2019-03-04T11:30:20.175Z,253.13
2019-03-04T11:31:20.215Z,270.00
2019-03-04T11:32:20.247Z,225.00
2019-03-04T11:33:20.308Z,219.38
2019-03-04T11:34:20.327Z,196.88
2019-03-04T11:35:20.369Z,168.75
2019-03-04T11:36:20.410Z,123.75
2019-03-04T11:37:20.452Z,112.50
2019-03-04T11:38:20.493Z,112.50
2019-03-04T11:39:20.538Z,112.50
2019-03-04T11:40:20.572Z,118.13
2019-03-04T11:41:20.613Z,118.13
2019-03-04T11:42:20.653Z,112.50
2019-03-04T11:43:20.707Z,123.75
2019-03-04T11:44:20.737Z,123.75
2019-03-04T11:45:20.795Z,112.50
2019-03-04T11:46:20.815Z,112.50
2019-03-04T11:47:20.856Z,118.13
2019-03-04T11:48:20.917Z,112.50
2019-03-04T11:49:20.936Z,112.50
2019-03-04T11:50:20.984Z,106.88
2019-03-04T11:51:21.016Z,118.13
2019-03-04T11:52:21.061Z,135.00
2019-03-04T11:53:21.099Z,146.25
2019-03-04T11:54:21.136Z,157.50
2019-03-04T11:55:21.185Z,185.63
2019-03-04T11:56:21.217Z,191.25
2019-03-04T11:57:21.266Z,185.63
2019-03-04T11:58:21.301Z,163.13
2019-03-04T11:59:21.337Z,157.50
2019-03-04T12:00:21.379Z,168.75
2019-03-04T12:01:21.419Z,185.63
2019-03-04T12:02:21.460Z,191.25
2019-03-04T12:03:21.506Z,185.63
2019-03-04T12:04:21.539Z,163.13
2019-03-04T12:05:21.580Z,185.63
2019-03-04T12:06:21.625Z,225.00
2019-03-04T12:07:21.660Z,230.63
2019-03-04T12:08:21.700Z,236.25
2019-03-04T12:09:21.741Z,247.50
2019-03-04T12:10:21.782Z,230.63
2019-03-04T12:11:21.823Z,163.13
2019-03-04T12:12:21.866Z,157.50
2019-03-04T12:13:21.903Z,157.50
2019-03-04T12:14:21.941Z,196.88
2019-03-04T12:15:21.985Z,202.50
2019-03-04T12:16:22.033Z,241.88
2019-03-04T12:17:22.067Z,326.25
2019-03-04T12:18:22.106Z,405.00
2019-03-04T12:19:22.148Z,382.50
2019-03-04T12:20:22.192Z,343.13
2019-03-04T12:21:22.235Z,303.75
2019-03-04T12:22:22.277Z,354.38
2019-03-04T12:23:22.311Z,247.50
2019-03-04T12:24:22.358Z,202.50
2019-03-04T12:25:22.391Z,196.88
2019-03-04T12:26:22.435Z,185.63
2019-03-04T12:27:22.475Z,157.50
2019-03-04T12:28:22.514Z,129.38
2019-03-04T12:29:22.556Z,118.13
2019-03-04T12:30:22.597Z,118.13
2019-03-04T12:31:22.638Z,118.13
2019-03-04T12:32:22.690Z,118.13
2019-03-04T12:33:22.725Z,123.75
2019-03-04T12:34:24.865Z,140.63
2019-03-04T12:35:22.803Z,163.13
2019-03-04T12:36:22.852Z,225.00
2019-03-04T12:37:22.887Z,309.38
2019-03-04T12:38:22.925Z,331.88
2019-03-04T12:39:22.973Z,264.38
2019-03-04T12:40:23.008Z,202.50
2019-03-04T12:41:23.062Z,151.88
2019-03-04T12:42:23.099Z,157.50
2019-03-04T12:43:23.152Z,213.75
2019-03-04T12:44:23.178Z,208.13
2019-03-04T12:45:23.215Z,219.38
2019-03-04T12:46:23.257Z,354.38
2019-03-04T12:47:23.296Z,298.13
2019-03-04T12:48:23.348Z,168.75
2019-03-04T12:49:23.385Z,146.25
2019-03-04T12:50:23.428Z,146.25
2019-03-04T12:51:23.704Z,191.25
2019-03-04T12:52:23.501Z,247.50
2019-03-04T12:53:23.547Z,286.88
2019-03-04T12:54:23.582Z,281.25
2019-03-04T12:55:23.629Z,281.25
2019-03-04T12:56:23.666Z,331.88